createdAt,value
2023-06-06T00:00:51.797Z,96863.34
2023-06-06T00:06:11.802Z,96849.69
2023-06-06T00:11:13.733Z,96849.72
2023-06-06T00:16:18.064Z,96844.91
2023-06-06T00:21:22.394Z,96838.03
2023-06-06T00:26:24.374Z,96841.56
2023-06-06T00:31:27.787Z,96843.88
2023-06-06T00:36:29.795Z,96830.72
2023-06-06T00:41:31.795Z,96837.03
2023-06-06T00:46:35.312Z,96829.94
2023-06-06T00:51:38.038Z,96843.88
2023-06-06T00:56:42.216Z,96843.88
2023-06-06T01:01:50.014Z,96838.28
2023-06-06T01:06:53.129Z,96828.91
2023-06-06T01:12:04.165Z,96838.47
2023-06-06T01:17:09.701Z,96837.72
2023-06-06T01:22:14.250Z,96825.81
2023-06-06T01:27:16.535Z,96834.63
2023-06-06T01:32:22.850Z,96832.56
2023-06-06T01:37:36.365Z,96838.63
2023-06-06T01:42:43.906Z,96838.84
2023-06-06T01:47:46.448Z,96834.78
2023-06-06T01:52:53.639Z,96841.34
2023-06-06T01:57:57.151Z,96837.28
2023-06-06T02:02:59.163Z,96841.03
2023-06-06T02:08:02.607Z,96831.69
2023-06-06T02:13:04.735Z,96836.25
2023-06-06T02:18:07.000Z,96839.31
2023-06-06T02:23:10.871Z,96839.75
2023-06-06T02:28:15.579Z,96843.53
2023-06-06T02:33:17.868Z,96830.69
2023-06-06T02:38:21.710Z,96829.88
2023-06-06T02:43:23.712Z,96823.75
2023-06-06T02:48:25.788Z,96823.22
2023-06-06T02:53:32.399Z,96833.09
2023-06-06T02:58:34.610Z,96826.06
2023-06-06T03:03:36.759Z,96828.34
2023-06-06T03:08:41.927Z,96842.75
2023-06-06T03:13:46.275Z,96838.72
2023-06-06T03:18:49.097Z,96833.97
2023-06-06T03:23:52.498Z,96838.03
2023-06-06T03:28:54.902Z,96837.28
2023-06-06T03:33:57.530Z,96829.47
2023-06-06T03:39:01.104Z,96834.03
2023-06-06T03:44:03.166Z,96832.50
2023-06-06T03:49:05.207Z,96827.22
2023-06-06T03:54:08.543Z,96835.84
2023-06-06T03:59:14.317Z,96826.50
2023-06-06T04:04:17.462Z,96831.31
2023-06-06T04:09:20.956Z,96821.25
2023-06-06T04:14:24.613Z,96828.34
2023-06-06T04:19:26.889Z,96818.81
2023-06-06T04:24:30.218Z,96813.50
2023-06-06T04:29:35.503Z,96816.53
2023-06-06T04:34:40.966Z,96812.97
2023-06-06T04:39:44.633Z,96811.38
2023-06-06T04:44:47.252Z,96816.91
2023-06-06T04:49:49.337Z,96815.34
2023-06-06T04:54:53.188Z,96819.53
2023-06-06T04:59:55.358Z,96824.81
2023-06-06T05:04:58.189Z,96825.94
2023-06-06T05:10:01.605Z,96826.75
2023-06-06T05:15:04.216Z,96825.09
2023-06-06T05:20:11.771Z,96829.63
2023-06-06T05:25:15.219Z,96831.00
2023-06-06T05:30:17.302Z,96830.91
2023-06-06T05:35:19.260Z,96828.13
2023-06-06T05:40:22.609Z,96819.50
2023-06-06T05:45:24.677Z,96821.72
2023-06-06T05:50:26.709Z,96815.28
2023-06-06T05:55:31.619Z,96813.88
2023-06-06T06:00:35.170Z,96827.97
2023-06-06T06:05:37.633Z,96830.19
2023-06-06T06:10:40.976Z,96831.09
2023-06-06T06:15:42.991Z,96829.38
2023-06-06T06:20:46.232Z,96836.34
2023-06-06T06:25:49.621Z,96837.94
2023-06-06T06:30:52.467Z,96838.97
2023-06-06T06:35:55.037Z,96844.13
2023-06-06T06:40:59.671Z,96840.53
2023-06-06T06:46:05.165Z,96850.19
2023-06-06T06:51:08.055Z,96850.69
2023-06-06T06:56:11.762Z,96851.28
2023-06-06T07:01:15.516Z,96851.78
2023-06-06T07:06:19.319Z,96849.25
2023-06-06T07:11:23.191Z,96838.88
2023-06-06T07:16:26.726Z,96843.41
2023-06-06T07:21:28.914Z,96845.41
2023-06-06T07:26:32.317Z,96849.06
2023-06-06T07:31:34.666Z,96850.19
2023-06-06T07:36:39.543Z,96846.78
2023-06-06T07:41:42.957Z,96850.91
2023-06-06T07:46:45.087Z,96849.16
2023-06-06T07:51:47.400Z,96840.50
2023-06-06T07:56:50.749Z,96841.72
2023-06-06T08:01:53.322Z,96846.56
2023-06-06T08:06:55.531Z,96855.19
2023-06-06T08:11:58.925Z,96850.56
2023-06-06T08:17:01.467Z,96848.19
2023-06-06T08:22:04.107Z,96843.91
2023-06-06T08:27:07.926Z,96837.09
2023-06-06T08:32:10.443Z,96846.91
2023-06-06T08:37:12.510Z,96845.72
2023-06-06T08:42:19.539Z,96838.25
2023-06-06T08:47:25.103Z,96843.34
2023-06-06T08:52:28.886Z,96843.34
2023-06-06T08:57:33.838Z,96846.38
2023-06-06T09:02:36.098Z,96848.06
2023-06-06T09:07:39.057Z,96846.88
2023-06-06T09:12:43.200Z,96850.91
2023-06-06T09:17:47.242Z,96840.41
2023-06-06T09:22:50.318Z,96846.53
2023-06-06T09:28:01.142Z,96847.97
2023-06-06T09:33:05.486Z,96850.34
2023-06-06T09:38:09.840Z,96847.31
2023-06-06T09:43:13.760Z,96854.59
2023-06-06T09:48:21.588Z,96853.72
2023-06-06T09:53:24.824Z,96861.44
2023-06-06T09:58:31.137Z,96854.63
2023-06-06T10:03:37.886Z,96859.84
2023-06-06T10:08:41.100Z,96851.03
2023-06-06T10:13:44.710Z,96854.50
2023-06-06T10:18:49.166Z,96851.38
2023-06-06T10:23:51.416Z,96851.28
2023-06-06T10:29:02.667Z,96842.09
2023-06-06T10:34:09.262Z,96846.72
2023-06-06T10:39:19.620Z,96851.19
2023-06-06T10:44:26.931Z,96854.09
2023-06-06T10:49:28.948Z,96854.78
2023-06-06T10:54:35.283Z,96859.56
2023-06-06T10:59:38.775Z,96859.94
2023-06-06T11:04:40.956Z,96858.81
2023-06-06T11:09:43.538Z,96864.44
2023-06-06T11:15:00.084Z,96861.66
2023-06-06T11:20:03.190Z,96860.59
2023-06-06T11:25:08.829Z,96861.56
2023-06-06T11:30:15.829Z,96862.63
2023-06-06T11:35:19.386Z,96860.19
2023-06-06T11:40:21.545Z,96863.81
2023-06-06T11:45:25.365Z,96869.81
2023-06-06T11:50:28.099Z,96864.50
2023-06-06T11:55:37.217Z,96869.25
2023-06-06T12:00:40.858Z,96868.41
2023-06-06T12:05:43.152Z,96857.41
2023-06-06T12:10:45.228Z,96865.53
2023-06-06T12:15:49.352Z,96856.56
2023-06-06T12:20:51.936Z,96854.25
2023-06-06T12:26:03.285Z,96848.94
2023-06-06T12:31:19.021Z,96837.66
2023-06-06T12:36:22.981Z,96833.94
2023-06-06T12:41:36.595Z,96842.41
2023-06-06T12:46:42.181Z,96822.88
2023-06-06T12:51:44.340Z,96834.44
2023-06-06T12:56:46.741Z,96824.31
2023-06-06T13:01:50.628Z,96825.16
2023-06-06T13:06:52.721Z,96825.09
2023-06-06T13:11:54.822Z,96824.03
2023-06-06T13:17:11.861Z,96813.81
2023-06-06T13:22:14.966Z,96814.50
2023-06-06T13:27:16.991Z,96812.59
2023-06-06T13:32:20.611Z,96815.03
2023-06-06T13:37:22.988Z,96807.75
2023-06-06T13:42:25.206Z,96805.84
2023-06-06T13:47:28.588Z,96798.00
2023-06-06T13:52:31.806Z,96787.97
2023-06-06T13:57:41.066Z,96787.25
2023-06-06T14:02:44.839Z,96781.56
2023-06-06T14:07:47.333Z,96783.50
2023-06-06T14:12:50.114Z,96782.53
2023-06-06T14:17:56.592Z,96785.97
2023-06-06T14:22:58.992Z,96780.31
2023-06-06T14:28:01.068Z,96781.28
2023-06-06T14:33:04.735Z,96776.84
2023-06-06T14:38:06.770Z,96774.34
2023-06-06T14:43:09.318Z,96779.00
2023-06-06T14:48:12.891Z,96771.63
2023-06-06T14:53:16.898Z,96762.47
2023-06-06T14:58:20.173Z,96772.97
2023-06-06T15:03:23.583Z,96776.34
2023-06-06T15:08:25.712Z,96768.56
2023-06-06T15:13:27.739Z,96765.09
2023-06-06T15:18:31.252Z,96764.34
2023-06-06T15:23:33.392Z,96759.94
2023-06-06T15:28:35.537Z,96753.00
2023-06-06T15:33:38.983Z,96747.16
2023-06-06T15:38:41.115Z,96752.59
2023-06-06T15:43:43.182Z,96748.72
2023-06-06T15:48:46.553Z,96746.44
2023-06-06T15:53:48.679Z,96737.16
2023-06-06T15:58:57.101Z,96741.16
2023-06-06T16:04:00.529Z,96737.78
2023-06-06T16:09:02.598Z,96734.72
2023-06-06T16:14:05.457Z,96731.69
2023-06-06T16:19:10.385Z,96740.84
2023-06-06T16:24:12.541Z,96741.47
2023-06-06T16:29:14.601Z,96743.28
2023-06-06T16:34:18.035Z,96738.00
2023-06-06T16:39:21.254Z,96736.91
2023-06-06T16:44:23.353Z,96746.09
2023-06-06T16:49:26.712Z,96741.16
2023-06-06T16:54:29.293Z,96736.84
2023-06-06T16:59:34.118Z,96730.75
2023-06-06T17:04:38.552Z,96736.66
2023-06-06T17:09:41.544Z,96735.22
2023-06-06T17:14:44.098Z,96739.00
2023-06-06T17:19:48.496Z,96740.97
2023-06-06T17:24:50.900Z,96742.94
2023-06-06T17:29:53.654Z,96745.91
2023-06-06T17:34:57.035Z,96748.47
2023-06-06T17:39:59.261Z,96742.69
2023-06-06T17:45:01.667Z,96756.41
2023-06-06T17:50:06.483Z,96753.28
2023-06-06T17:55:08.665Z,96742.78
2023-06-06T18:00:12.786Z,96747.31
2023-06-06T18:05:31.967Z,96758.81
2023-06-06T18:10:37.211Z,96755.09
2023-06-06T18:15:39.416Z,96759.09
2023-06-06T18:20:43.117Z,96761.53
2023-06-06T18:25:45.888Z,96762.69
2023-06-06T18:30:47.988Z,96766.41
2023-06-06T18:35:51.816Z,96754.69
2023-06-06T18:40:54.096Z,96769.56
2023-06-06T18:45:56.856Z,96769.13
2023-06-06T18:51:00.650Z,96768.41
2023-06-06T18:56:02.849Z,96772.03
2023-06-06T19:01:05.032Z,96782.19
2023-06-06T19:06:08.542Z,96782.56
2023-06-06T19:11:10.981Z,96779.69
2023-06-06T19:16:13.078Z,96790.84
2023-06-06T19:21:18.752Z,96781.72
2023-06-06T19:26:20.870Z,96788.66
2023-06-06T19:31:23.072Z,96787.94
2023-06-06T19:36:27.055Z,96798.81
2023-06-06T19:41:29.350Z,96798.81
2023-06-06T19:46:32.668Z,96803.06
2023-06-06T19:51:36.918Z,96799.56
2023-06-06T19:56:39.870Z,96791.19
2023-06-06T20:01:42.012Z,96787.16
2023-06-06T20:06:46.473Z,96791.50
2023-06-06T20:11:48.485Z,96785.94
2023-06-06T20:16:52.482Z,96791.03
2023-06-06T20:21:58.560Z,96790.31
2023-06-06T20:27:03.018Z,96795.91
2023-06-06T20:32:06.274Z,96787.59
2023-06-06T20:37:12.105Z,96782.75
2023-06-06T20:42:14.223Z,96790.13
2023-06-06T20:47:16.488Z,96777.72
2023-06-06T20:52:20.677Z,96784.31
2023-06-06T20:57:22.694Z,96782.56
2023-06-06T21:02:25.192Z,96787.13
2023-06-06T21:07:29.331Z,96777.75
2023-06-06T21:12:31.955Z,96777.50
2023-06-06T21:17:34.019Z,96777.50
2023-06-06T21:22:37.535Z,96767.63
2023-06-06T21:27:39.616Z,96766.13
2023-06-06T21:32:41.817Z,96772.97
2023-06-06T21:37:45.336Z,96770.94
2023-06-06T21:42:50.707Z,96766.63
2023-06-06T21:47:52.840Z,96760.31
2023-06-06T21:52:56.139Z,96763.06
2023-06-06T21:57:58.166Z,96759.28
2023-06-06T22:03:00.317Z,96756.00
2023-06-06T22:08:04.103Z,96754.00
2023-06-06T22:13:06.337Z,96748.72
2023-06-06T22:18:09.236Z,96749.22
2023-06-06T22:23:12.682Z,96740.13
2023-06-06T22:28:14.750Z,96748.69
2023-06-06T22:33:16.778Z,96741.38
2023-06-06T22:38:20.202Z,96742.91
2023-06-06T22:43:22.284Z,96743.66
2023-06-06T22:48:24.310Z,96741.63
2023-06-06T22:53:27.815Z,96733.53
2023-06-06T22:58:29.806Z,96733.28
2023-06-06T23:03:31.966Z,96727.47
2023-06-06T23:08:35.523Z,96719.38
2023-06-06T23:13:38.051Z,96721.91
2023-06-06T23:18:40.140Z,96713.56
2023-06-06T23:23:43.523Z,96723.16
2023-06-06T23:28:45.630Z,96720.88
2023-06-06T23:33:47.998Z,96714.31
2023-06-06T23:38:51.514Z,96722.16
2023-06-06T23:43:53.574Z,96724.44
2023-06-06T23:48:55.613Z,96722.94
2023-06-06T23:53:58.981Z,96726.22
2023-06-06T23:59:00.991Z,96711.00
